首页
METAR-TAF:

METAR-TAF

机场 :

Municipal_Airport

Cherokee, 艾奥瓦州, 美国

纬度: 42-43-54N, 经度: 095-33-21W, 海拔: 374米

当前天气观测

该预报发布于21分钟前的05:55 UTC
风速2节,风向西南
温度 26°C
湿度 89%
气压 1005 hPa
能見度: 16.1公里
天空无云

METAR: KCKP 250555Z AUTO 23002KT 10SM CLR 26/24 A2967 RMK AO2 10338 20261

时间: 01:16 (06:16 UTC)


TAF: 丢失

超过4000个机场的气象观测和天气预报(METAR&TAF报告)。

可查询的气象台以黄色和红色小点在地图上表示。

将鼠标移到小点上方,可查看气象台名称。

然后点击查看天气观测和预报。

如需切换地图:点击带黑十字的绿色按钮放大地图;点击带横线的绿色按钮缩小地图;或者点击绿色箭头查看邻近地区的地图。


METAR-TAF: